sensor_id;sensor_type;location;lat;lon;timestamp;temperature;humidity
35565;DHT22;21668;44.784;10.336;2022-08-03T00:02:26;24.30;95.20
35565;DHT22;21668;44.784;10.336;2022-08-03T00:05:29;24.20;95.30
35565;DHT22;21668;44.784;10.336;2022-08-03T00:08:35;24.10;95.40
35565;DHT22;21668;44.784;10.336;2022-08-03T00:11:38;24.10;95.50
35565;DHT22;21668;44.784;10.336;2022-08-03T00:14:42;24.10;95.70
35565;DHT22;21668;44.784;10.336;2022-08-03T00:17:46;24.10;95.80
35565;DHT22;21668;44.784;10.336;2022-08-03T00:20:50;24.10;95.80
35565;DHT22;21668;44.784;10.336;2022-08-03T00:23:54;24.10;95.90
35565;DHT22;21668;44.784;10.336;2022-08-03T00:26:58;24.00;95.90
35565;DHT22;21668;44.784;10.336;2022-08-03T00:30:02;24.00;96.10
35565;DHT22;21668;44.784;10.336;2022-08-03T00:33:06;24.00;96.10
35565;DHT22;21668;44.784;10.336;2022-08-03T00:36:10;23.90;96.10
35565;DHT22;21668;44.784;10.336;2022-08-03T00:39:13;23.90;96.20
35565;DHT22;21668;44.784;10.336;2022-08-03T00:42:17;23.80;96.40
35565;DHT22;21668;44.784;10.336;2022-08-03T00:45:22;23.80;96.40
35565;DHT22;21668;44.784;10.336;2022-08-03T00:48:26;23.70;96.40
35565;DHT22;21668;44.784;10.336;2022-08-03T00:51:30;23.70;96.60
35565;DHT22;21668;44.784;10.336;2022-08-03T00:54:35;23.70;96.60
35565;DHT22;21668;44.784;10.336;2022-08-03T00:57:39;23.70;96.90
35565;DHT22;21668;44.784;10.336;2022-08-03T01:00:44;23.70;96.80
35565;DHT22;21668;44.784;10.336;2022-08-03T01:03:48;23.70;96.90
35565;DHT22;21668;44.784;10.336;2022-08-03T01:10:22;23.60;97.00
35565;DHT22;21668;44.784;10.336;2022-08-03T01:13:33;23.60;97.00
35565;DHT22;21668;44.784;10.336;2022-08-03T01:16:43;23.60;97.10
35565;DHT22;21668;44.784;10.336;2022-08-03T01:22:56;23.60;97.20
35565;DHT22;21668;44.784;10.336;2022-08-03T01:26:17;23.60;97.20
35565;DHT22;21668;44.784;10.336;2022-08-03T01:32:57;23.60;97.60
35565;DHT22;21668;44.784;10.336;2022-08-03T01:36:03;23.60;97.60
35565;DHT22;21668;44.784;10.336;2022-08-03T01:39:07;23.60;97.80
35565;DHT22;21668;44.784;10.336;2022-08-03T01:42:36;23.60;97.90
35565;DHT22;21668;44.784;10.336;2022-08-03T01:45:41;23.60;97.80
35565;DHT22;21668;44.784;10.336;2022-08-03T01:48:46;23.60;98.10
35565;DHT22;21668;44.784;10.336;2022-08-03T01:51:50;23.60;98.30
35565;DHT22;21668;44.784;10.336;2022-08-03T01:54:54;23.60;98.70
35565;DHT22;21668;44.784;10.336;2022-08-03T01:57:59;23.60;98.30
35565;DHT22;21668;44.784;10.336;2022-08-03T02:01:04;23.50;98.30
35565;DHT22;21668;44.784;10.336;2022-08-03T02:04:08;23.50;98.70
35565;DHT22;21668;44.784;10.336;2022-08-03T02:07:13;23.60;98.60
35565;DHT22;21668;44.784;10.336;2022-08-03T02:10:18;23.50;98.90
35565;DHT22;21668;44.784;10.336;2022-08-03T02:13:22;23.50;98.60
35565;DHT22;21668;44.784;10.336;2022-08-03T02:16:26;23.50;98.70
35565;DHT22;21668;44.784;10.336;2022-08-03T02:19:31;23.40;98.80
35565;DHT22;21668;44.784;10.336;2022-08-03T02:22:35;23.40;98.60
35565;DHT22;21668;44.784;10.336;2022-08-03T02:25:42;23.40;98.60
35565;DHT22;21668;44.784;10.336;2022-08-03T02:28:47;23.40;98.80
35565;DHT22;21668;44.784;10.336;2022-08-03T02:31:52;23.30;99.10
35565;DHT22;21668;44.784;10.336;2022-08-03T02:34:57;23.30;99.00
35565;DHT22;21668;44.784;10.336;2022-08-03T02:38:03;23.30;99.00
35565;DHT22;21668;44.784;10.336;2022-08-03T02:41:08;23.30;99.20
35565;DHT22;21668;44.784;10.336;2022-08-03T02:44:14;23.20;99.20
35565;DHT22;21668;44.784;10.336;2022-08-03T02:47:19;23.30;99.40
35565;DHT22;21668;44.784;10.336;2022-08-03T02:50:23;23.30;99.10
35565;DHT22;21668;44.784;10.336;2022-08-03T02:53:28;23.20;99.20
35565;DHT22;21668;44.784;10.336;2022-08-03T02:56:32;23.20;99.20
35565;DHT22;21668;44.784;10.336;2022-08-03T02:59:36;23.10;99.20
35565;DHT22;21668;44.784;10.336;2022-08-03T03:02:41;23.00;99.50
35565;DHT22;21668;44.784;10.336;2022-08-03T03:05:45;23.00;99.70
35565;DHT22;21668;44.784;10.336;2022-08-03T03:08:49;23.00;99.60
35565;DHT22;21668;44.784;10.336;2022-08-03T03:11:54;22.90;99.60
35565;DHT22;21668;44.784;10.336;2022-08-03T03:14:59;22.90;99.60
35565;DHT22;21668;44.784;10.336;2022-08-03T03:18:02;22.90;99.40
35565;DHT22;21668;44.784;10.336;2022-08-03T03:21:09;22.80;99.50
35565;DHT22;21668;44.784;10.336;2022-08-03T03:24:13;22.80;99.80
35565;DHT22;21668;44.784;10.336;2022-08-03T03:27:17;22.80;99.90
35565;DHT22;21668;44.784;10.336;2022-08-03T03:30:21;22.80;99.90
35565;DHT22;21668;44.784;10.336;2022-08-03T03:33:25;22.70;99.90
35565;DHT22;21668;44.784;10.336;2022-08-03T03:36:29;22.60;99.90
35565;DHT22;21668;44.784;10.336;2022-08-03T03:39:32;21.10;99.90
35565;DHT22;21668;44.784;10.336;2022-08-03T03:42:37;22.70;99.90
35565;DHT22;21668;44.784;10.336;2022-08-03T03:45:40;22.60;99.90
35565;DHT22;21668;44.784;10.336;2022-08-03T03:48:45;22.60;99.90
35565;DHT22;21668;44.784;10.336;2022-08-03T03:51:53;22.50;99.90
35565;DHT22;21668;44.784;10.336;2022-08-03T03:54:57;22.50;99.90
35565;DHT22;21668;44.784;10.336;2022-08-03T03:58:01;22.50;99.90
35565;DHT22;21668;44.784;10.336;2022-08-03T04:01:06;22.50;99.90
35565;DHT22;21668;44.784;10.336;2022-08-03T04:04:10;22.40;99.90
35565;DHT22;21668;44.784;10.336;2022-08-03T04:07:35;22.40;99.90
35565;DHT22;21668;44.784;10.336;2022-08-03T04:11:12;22.40;99.90
35565;DHT22;21668;44.784;10.336;2022-08-03T04:14:23;22.30;99.90
35565;DHT22;21668;44.784;10.336;2022-08-03T04:17:28;22.30;99.90
35565;DHT22;21668;44.784;10.336;2022-08-03T04:20:33;22.30;99.90
35565;DHT22;21668;44.784;10.336;2022-08-03T04:23:42;22.30;99.90
35565;DHT22;21668;44.784;10.336;2022-08-03T04:26:47;22.30;99.90
35565;DHT22;21668;44.784;10.336;2022-08-03T04:29:52;22.30;99.90
35565;DHT22;21668;44.784;10.336;2022-08-03T04:32:56;22.20;99.90
35565;DHT22;21668;44.784;10.336;2022-08-03T04:36:02;22.20;99.90
35565;DHT22;21668;44.784;10.336;2022-08-03T04:39:11;22.30;99.90
35565;DHT22;21668;44.784;10.336;2022-08-03T04:42:16;22.30;99.90
35565;DHT22;21668;44.784;10.336;2022-08-03T04:45:20;22.30;99.90
35565;DHT22;21668;44.784;10.336;2022-08-03T04:48:24;22.40;99.90
35565;DHT22;21668;44.784;10.336;2022-08-03T04:51:28;22.50;99.90
35565;DHT22;21668;44.784;10.336;2022-08-03T04:54:42;22.50;99.90
35565;DHT22;21668;44.784;10.336;2022-08-03T04:57:46;22.60;99.90
35565;DHT22;21668;44.784;10.336;2022-08-03T05:00:49;22.70;99.90
35565;DHT22;21668;44.784;10.336;2022-08-03T05:03:54;22.80;99.90
35565;DHT22;21668;44.784;10.336;2022-08-03T05:06:58;22.80;99.90
35565;DHT22;21668;44.784;10.336;2022-08-03T05:10:02;22.80;99.90
35565;DHT22;21668;44.784;10.336;2022-08-03T05:13:06;22.90;99.90
35565;DHT22;21668;44.784;10.336;2022-08-03T05:16:14;22.90;99.90
35565;DHT22;21668;44.784;10.336;2022-08-03T05:19:31;23.00;99.90
35565;DHT22;21668;44.784;10.336;2022-08-03T05:22:35;23.10;99.90
35565;DHT22;21668;44.784;10.336;2022-08-03T05:25:39;23.20;99.70
35565;DHT22;21668;44.784;10.336;2022-08-03T05:28:43;23.30;99.40
35565;DHT22;21668;44.784;10.336;2022-08-03T05:31:47;23.30;99.10
35565;DHT22;21668;44.784;10.336;2022-08-03T05:34:51;23.40;99.00
35565;DHT22;21668;44.784;10.336;2022-08-03T05:37:55;23.50;99.00
35565;DHT22;21668;44.784;10.336;2022-08-03T05:40:59;23.60;99.10
35565;DHT22;21668;44.784;10.336;2022-08-03T05:44:03;24.30;98.30
35565;DHT22;21668;44.784;10.336;2022-08-03T05:47:06;24.20;95.00
35565;DHT22;21668;44.784;10.336;2022-08-03T05:50:11;28.30;93.30
35565;DHT22;21668;44.784;10.336;2022-08-03T05:53:15;30.10;91.30
35565;DHT22;21668;44.784;10.336;2022-08-03T05:56:22;31.00;89.60
35565;DHT22;21668;44.784;10.336;2022-08-03T05:59:27;31.60;87.90
35565;DHT22;21668;44.784;10.336;2022-08-03T06:02:30;32.10;85.90
35565;DHT22;21668;44.784;10.336;2022-08-03T06:05:34;32.60;84.70
35565;DHT22;21668;44.784;10.336;2022-08-03T06:08:39;32.10;84.90
35565;DHT22;21668;44.784;10.336;2022-08-03T06:11:43;31.70;85.20
35565;DHT22;21668;44.784;10.336;2022-08-03T06:14:46;31.30;86.10
35565;DHT22;21668;44.784;10.336;2022-08-03T06:17:50;30.40;87.40
35565;DHT22;21668;44.784;10.336;2022-08-03T06:20:55;29.60;88.80
35565;DHT22;21668;44.784;10.336;2022-08-03T06:23:58;29.60;89.20
35565;DHT22;21668;44.784;10.336;2022-08-03T06:27:02;30.20;87.60
35565;DHT22;21668;44.784;10.336;2022-08-03T06:30:07;30.10;87.50
35565;DHT22;21668;44.784;10.336;2022-08-03T06:33:13;29.60;88.40
35565;DHT22;21668;44.784;10.336;2022-08-03T06:36:17;28.90;89.50
35565;DHT22;21668;44.784;10.336;2022-08-03T06:39:20;28.80;90.10
35565;DHT22;21668;44.784;10.336;2022-08-03T06:42:24;28.40;90.00
35565;DHT22;21668;44.784;10.336;2022-08-03T06:45:29;28.10;90.50
35565;DHT22;21668;44.784;10.336;2022-08-03T06:48:34;27.80;91.00
35565;DHT22;21668;44.784;10.336;2022-08-03T06:51:38;27.50;91.30
35565;DHT22;21668;44.784;10.336;2022-08-03T06:54:41;27.40;91.50
35565;DHT22;21668;44.784;10.336;2022-08-03T06:57:46;27.70;91.50
35565;DHT22;21668;44.784;10.336;2022-08-03T07:00:51;28.30;90.50
35565;DHT22;21668;44.784;10.336;2022-08-03T07:03:55;28.20;90.60
35565;DHT22;21668;44.784;10.336;2022-08-03T07:07:06;28.10;90.90
35565;DHT22;21668;44.784;10.336;2022-08-03T07:10:10;28.30;91.10
35565;DHT22;21668;44.784;10.336;2022-08-03T07:13:14;28.20;90.90
35565;DHT22;21668;44.784;10.336;2022-08-03T07:16:18;27.90;91.30
35565;DHT22;21668;44.784;10.336;2022-08-03T07:19:21;27.80;91.60
35565;DHT22;21668;44.784;10.336;2022-08-03T07:22:25;28.00;91.40
35565;DHT22;21668;44.784;10.336;2022-08-03T07:25:28;27.30;91.50
35565;DHT22;21668;44.784;10.336;2022-08-03T07:28:32;27.80;92.30
35565;DHT22;21668;44.784;10.336;2022-08-03T07:31:35;27.80;92.30
35565;DHT22;21668;44.784;10.336;2022-08-03T07:34:39;28.10;91.90
35565;DHT22;21668;44.784;10.336;2022-08-03T07:37:43;28.80;91.70
35565;DHT22;21668;44.784;10.336;2022-08-03T07:40:47;29.90;90.30
35565;DHT22;21668;44.784;10.336;2022-08-03T07:43:50;31.00;88.10
35565;DHT22;21668;44.784;10.336;2022-08-03T07:46:54;32.50;86.30
35565;DHT22;21668;44.784;10.336;2022-08-03T07:49:59;33.00;84.60
35565;DHT22;21668;44.784;10.336;2022-08-03T07:53:03;33.40;84.60
35565;DHT22;21668;44.784;10.336;2022-08-03T07:56:06;33.70;84.50
35565;DHT22;21668;44.784;10.336;2022-08-03T07:59:10;34.10;82.90
35565;DHT22;21668;44.784;10.336;2022-08-03T08:02:34;33.80;83.50
35565;DHT22;21668;44.784;10.336;2022-08-03T08:05:38;33.70;84.30
35565;DHT22;21668;44.784;10.336;2022-08-03T08:08:42;33.30;84.80
35565;DHT22;21668;44.784;10.336;2022-08-03T08:11:46;32.80;85.70
35565;DHT22;21668;44.784;10.336;2022-08-03T08:14:49;32.20;87.10
35565;DHT22;21668;44.784;10.336;2022-08-03T08:17:59;31.30;88.70
35565;DHT22;21668;44.784;10.336;2022-08-03T08:21:03;30.60;89.70
35565;DHT22;21668;44.784;10.336;2022-08-03T08:24:07;30.20;90.20
35565;DHT22;21668;44.784;10.336;2022-08-03T08:27:11;30.00;90.50
35565;DHT22;21668;44.784;10.336;2022-08-03T08:30:16;29.90;90.60
35565;DHT22;21668;44.784;10.336;2022-08-03T08:33:21;29.80;90.60
35565;DHT22;21668;44.784;10.336;2022-08-03T08:36:24;29.90;90.70
35565;DHT22;21668;44.784;10.336;2022-08-03T08:39:28;29.80;90.10
35565;DHT22;21668;44.784;10.336;2022-08-03T08:42:32;29.80;90.80
35565;DHT22;21668;44.784;10.336;2022-08-03T08:45:35;29.80;90.40
35565;DHT22;21668;44.784;10.336;2022-08-03T08:48:40;29.90;90.40
35565;DHT22;21668;44.784;10.336;2022-08-03T08:51:45;29.90;90.10
35565;DHT22;21668;44.784;10.336;2022-08-03T08:54:54;30.10;90.20
35565;DHT22;21668;44.784;10.336;2022-08-03T08:58:01;30.10;90.60
35565;DHT22;21668;44.784;10.336;2022-08-03T09:01:07;30.10;90.70
35565;DHT22;21668;44.784;10.336;2022-08-03T09:04:11;29.80;90.40
35565;DHT22;21668;44.784;10.336;2022-08-03T09:07:15;30.20;90.50
35565;DHT22;21668;44.784;10.336;2022-08-03T09:10:20;30.30;91.20
35565;DHT22;21668;44.784;10.336;2022-08-03T09:13:27;30.40;90.80
35565;DHT22;21668;44.784;10.336;2022-08-03T09:16:33;30.50;90.50
35565;DHT22;21668;44.784;10.336;2022-08-03T09:19:37;30.40;90.20
35565;DHT22;21668;44.784;10.336;2022-08-03T09:22:50;30.40;89.90
35565;DHT22;21668;44.784;10.336;2022-08-03T09:26:00;30.40;90.30
35565;DHT22;21668;44.784;10.336;2022-08-03T09:29:07;30.40;90.30
35565;DHT22;21668;44.784;10.336;2022-08-03T09:32:11;30.40;90.30
35565;DHT22;21668;44.784;10.336;2022-08-03T09:35:15;30.50;89.20
35565;DHT22;21668;44.784;10.336;2022-08-03T09:38:20;30.50;89.50
35565;DHT22;21668;44.784;10.336;2022-08-03T09:41:30;30.60;89.30
35565;DHT22;21668;44.784;10.336;2022-08-03T09:47:47;31.00;87.90
35565;DHT22;21668;44.784;10.336;2022-08-03T09:50:51;31.90;89.80
35565;DHT22;21668;44.784;10.336;2022-08-03T09:53:55;31.00;88.10
35565;DHT22;21668;44.784;10.336;2022-08-03T09:57:02;31.00;87.70
35565;DHT22;21668;44.784;10.336;2022-08-03T10:00:09;31.00;88.20
35565;DHT22;21668;44.784;10.336;2022-08-03T10:03:17;31.10;87.80
35565;DHT22;21668;44.784;10.336;2022-08-03T10:06:21;31.10;87.00
35565;DHT22;21668;44.784;10.336;2022-08-03T10:09:24;31.10;88.00
35565;DHT22;21668;44.784;10.336;2022-08-03T10:12:28;31.10;88.40
35565;DHT22;21668;44.784;10.336;2022-08-03T10:15:32;28.40;85.00
35565;DHT22;21668;44.784;10.336;2022-08-03T10:18:36;31.10;87.40
35565;DHT22;21668;44.784;10.336;2022-08-03T10:21:47;31.00;86.90
35565;DHT22;21668;44.784;10.336;2022-08-03T10:24:57;31.30;86.60
35565;DHT22;21668;44.784;10.336;2022-08-03T10:28:02;32.10;86.50
35565;DHT22;21668;44.784;10.336;2022-08-03T10:31:07;31.30;85.80
35565;DHT22;21668;44.784;10.336;2022-08-03T10:34:22;31.40;85.30
35565;DHT22;21668;44.784;10.336;2022-08-03T10:37:26;31.40;81.70
35565;DHT22;21668;44.784;10.336;2022-08-03T10:40:32;31.50;84.30
35565;DHT22;21668;44.784;10.336;2022-08-03T10:43:49;31.70;84.10
35565;DHT22;21668;44.784;10.336;2022-08-03T10:46:53;31.90;84.00
35565;DHT22;21668;44.784;10.336;2022-08-03T10:49:57;31.90;84.80
35565;DHT22;21668;44.784;10.336;2022-08-03T10:53:03;30.20;83.40
35565;DHT22;21668;44.784;10.336;2022-08-03T11:06:17;32.30;83.50
35565;DHT22;21668;44.784;10.336;2022-08-03T11:09:21;32.30;83.20
35565;DHT22;21668;44.784;10.336;2022-08-03T11:12:26;33.00;83.90
35565;DHT22;21668;44.784;10.336;2022-08-03T11:15:33;32.30;83.40
35565;DHT22;21668;44.784;10.336;2022-08-03T11:18:52;32.50;81.60
35565;DHT22;21668;44.784;10.336;2022-08-03T11:21:57;32.40;81.60
35565;DHT22;21668;44.784;10.336;2022-08-03T11:25:02;32.50;81.80
35565;DHT22;21668;44.784;10.336;2022-08-03T11:28:25;34.20;83.10
35565;DHT22;21668;44.784;10.336;2022-08-03T11:34:34;32.60;82.20
35565;DHT22;21668;44.784;10.336;2022-08-03T11:41:31;32.80;80.30
35565;DHT22;21668;44.784;10.336;2022-08-03T11:44:40;32.80;80.50
35565;DHT22;21668;44.784;10.336;2022-08-03T11:47:45;32.90;79.50
35565;DHT22;21668;44.784;10.336;2022-08-03T11:50:49;32.80;79.30
35565;DHT22;21668;44.784;10.336;2022-08-03T11:53:54;32.80;80.50
35565;DHT22;21668;44.784;10.336;2022-08-03T11:56:58;32.90;80.90
35565;DHT22;21668;44.784;10.336;2022-08-03T12:00:03;32.80;80.10
35565;DHT22;21668;44.784;10.336;2022-08-03T12:03:22;32.90;78.10
35565;DHT22;21668;44.784;10.336;2022-08-03T12:06:26;33.10;76.40
35565;DHT22;21668;44.784;10.336;2022-08-03T12:09:30;33.30;78.90
35565;DHT22;21668;44.784;10.336;2022-08-03T12:12:33;33.10;79.30
35565;DHT22;21668;44.784;10.336;2022-08-03T12:15:37;33.00;78.80
35565;DHT22;21668;44.784;10.336;2022-08-03T12:18:40;32.90;78.40
35565;DHT22;21668;44.784;10.336;2022-08-03T12:21:48;33.00;77.70
35565;DHT22;21668;44.784;10.336;2022-08-03T12:24:52;33.10;76.60
35565;DHT22;21668;44.784;10.336;2022-08-03T12:28:04;33.10;78.00
35565;DHT22;21668;44.784;10.336;2022-08-03T12:31:08;32.40;77.10
35565;DHT22;21668;44.784;10.336;2022-08-03T12:34:12;33.40;76.90
35565;DHT22;21668;44.784;10.336;2022-08-03T12:37:20;33.60;78.20
35565;DHT22;21668;44.784;10.336;2022-08-03T12:40:24;33.40;77.90
35565;DHT22;21668;44.784;10.336;2022-08-03T12:43:29;33.40;77.10
35565;DHT22;21668;44.784;10.336;2022-08-03T12:46:34;33.40;76.80
35565;DHT22;21668;44.784;10.336;2022-08-03T12:49:45;33.40;76.10
35565;DHT22;21668;44.784;10.336;2022-08-03T12:52:49;33.40;76.60
35565;DHT22;21668;44.784;10.336;2022-08-03T12:55:59;33.40;76.80
35565;DHT22;21668;44.784;10.336;2022-08-03T13:02:26;33.60;74.80
35565;DHT22;21668;44.784;10.336;2022-08-03T13:05:31;33.70;75.80
35565;DHT22;21668;44.784;10.336;2022-08-03T13:08:48;33.50;76.00
35565;DHT22;21668;44.784;10.336;2022-08-03T13:12:08;33.60;75.30
35565;DHT22;21668;44.784;10.336;2022-08-03T13:15:12;33.70;74.30
35565;DHT22;21668;44.784;10.336;2022-08-03T13:18:16;33.70;74.90
35565;DHT22;21668;44.784;10.336;2022-08-03T13:21:20;33.60;75.90
35565;DHT22;21668;44.784;10.336;2022-08-03T13:24:24;33.60;75.60
35565;DHT22;21668;44.784;10.336;2022-08-03T13:27:28;33.60;75.90
35565;DHT22;21668;44.784;10.336;2022-08-03T13:30:32;33.10;74.50
35565;DHT22;21668;44.784;10.336;2022-08-03T13:33:37;33.70;75.00
35565;DHT22;21668;44.784;10.336;2022-08-03T13:36:42;33.70;75.40
35565;DHT22;21668;44.784;10.336;2022-08-03T13:39:45;33.60;75.10
35565;DHT22;21668;44.784;10.336;2022-08-03T13:42:49;33.80;74.90
35565;DHT22;21668;44.784;10.336;2022-08-03T13:45:52;33.70;74.60
35565;DHT22;21668;44.784;10.336;2022-08-03T13:48:56;33.70;74.50
35565;DHT22;21668;44.784;10.336;2022-08-03T13:51:59;33.60;75.00
35565;DHT22;21668;44.784;10.336;2022-08-03T13:55:04;33.60;74.90
35565;DHT22;21668;44.784;10.336;2022-08-03T13:58:08;33.80;76.10
35565;DHT22;21668;44.784;10.336;2022-08-03T14:01:14;36.70;77.40
35565;DHT22;21668;44.784;10.336;2022-08-03T14:04:18;34.10;75.40
35565;DHT22;21668;44.784;10.336;2022-08-03T14:07:23;33.90;75.90
35565;DHT22;21668;44.784;10.336;2022-08-03T14:10:27;33.90;75.90
35565;DHT22;21668;44.784;10.336;2022-08-03T14:13:31;34.00;75.40
35565;DHT22;21668;44.784;10.336;2022-08-03T14:16:34;32.00;73.30
35565;DHT22;21668;44.784;10.336;2022-08-03T14:19:38;34.10;73.10
35565;DHT22;21668;44.784;10.336;2022-08-03T14:22:42;34.00;73.10
35565;DHT22;21668;44.784;10.336;2022-08-03T14:25:45;34.00;73.40
35565;DHT22;21668;44.784;10.336;2022-08-03T14:28:49;33.90;73.90
35565;DHT22;21668;44.784;10.336;2022-08-03T14:31:53;36.90;75.90
35565;DHT22;21668;44.784;10.336;2022-08-03T14:34:56;34.20;73.20
35565;DHT22;21668;44.784;10.336;2022-08-03T14:38:00;33.80;73.60
35565;DHT22;21668;44.784;10.336;2022-08-03T14:41:04;34.10;73.30
35565;DHT22;21668;44.784;10.336;2022-08-03T14:44:07;34.20;73.60
35565;DHT22;21668;44.784;10.336;2022-08-03T14:47:11;31.40;70.90
35565;DHT22;21668;44.784;10.336;2022-08-03T14:50:15;34.10;71.70
35565;DHT22;21668;44.784;10.336;2022-08-03T14:53:19;34.10;74.00
35565;DHT22;21668;44.784;10.336;2022-08-03T14:56:23;35.40;74.40
35565;DHT22;21668;44.784;10.336;2022-08-03T14:59:27;34.10;73.20
35565;DHT22;21668;44.784;10.336;2022-08-03T15:02:31;34.10;73.60
35565;DHT22;21668;44.784;10.336;2022-08-03T15:05:35;34.10;74.00
35565;DHT22;21668;44.784;10.336;2022-08-03T15:08:38;34.10;73.40
35565;DHT22;21668;44.784;10.336;2022-08-03T15:11:42;34.00;73.50
35565;DHT22;21668;44.784;10.336;2022-08-03T15:14:46;34.00;73.90
35565;DHT22;21668;44.784;10.336;2022-08-03T15:17:50;33.70;75.20
35565;DHT22;21668;44.784;10.336;2022-08-03T15:20:54;34.40;75.40
35565;DHT22;21668;44.784;10.336;2022-08-03T15:23:58;33.90;75.20
35565;DHT22;21668;44.784;10.336;2022-08-03T15:27:18;33.90;75.00
35565;DHT22;21668;44.784;10.336;2022-08-03T15:30:21;33.90;74.60
35565;DHT22;21668;44.784;10.336;2022-08-03T15:33:25;33.90;74.10
35565;DHT22;21668;44.784;10.336;2022-08-03T15:36:29;31.50;72.70
35565;DHT22;21668;44.784;10.336;2022-08-03T15:39:34;34.00;73.60
35565;DHT22;21668;44.784;10.336;2022-08-03T15:42:37;34.00;73.90
35565;DHT22;21668;44.784;10.336;2022-08-03T15:45:41;34.00;74.20
35565;DHT22;21668;44.784;10.336;2022-08-03T15:48:46;33.90;72.90
35565;DHT22;21668;44.784;10.336;2022-08-03T15:51:50;33.90;73.60
35565;DHT22;21668;44.784;10.336;2022-08-03T15:54:54;33.90;73.40
35565;DHT22;21668;44.784;10.336;2022-08-03T15:57:58;33.50;72.30
35565;DHT22;21668;44.784;10.336;2022-08-03T16:01:02;33.80;73.80
35565;DHT22;21668;44.784;10.336;2022-08-03T16:04:06;33.90;73.90
35565;DHT22;21668;44.784;10.336;2022-08-03T16:07:13;33.90;73.50
35565;DHT22;21668;44.784;10.336;2022-08-03T16:10:19;34.00;73.00
35565;DHT22;21668;44.784;10.336;2022-08-03T16:13:23;33.90;72.80
35565;DHT22;21668;44.784;10.336;2022-08-03T16:16:27;33.90;73.60
35565;DHT22;21668;44.784;10.336;2022-08-03T16:19:31;33.90;74.00
35565;DHT22;21668;44.784;10.336;2022-08-03T16:22:45;33.90;73.90
35565;DHT22;21668;44.784;10.336;2022-08-03T16:25:49;33.60;73.20
35565;DHT22;21668;44.784;10.336;2022-08-03T16:28:53;33.90;72.80
35565;DHT22;21668;44.784;10.336;2022-08-03T16:31:57;33.90;73.00
35565;DHT22;21668;44.784;10.336;2022-08-03T16:35:23;33.80;73.10
35565;DHT22;21668;44.784;10.336;2022-08-03T16:38:27;33.80;73.90
35565;DHT22;21668;44.784;10.336;2022-08-03T16:41:31;33.90;74.00
35565;DHT22;21668;44.784;10.336;2022-08-03T16:44:35;33.70;74.80
35565;DHT22;21668;44.784;10.336;2022-08-03T16:47:39;33.90;74.60
35565;DHT22;21668;44.784;10.336;2022-08-03T16:50:43;33.80;74.60
35565;DHT22;21668;44.784;10.336;2022-08-03T16:53:47;33.60;74.80
35565;DHT22;21668;44.784;10.336;2022-08-03T16:56:50;33.50;74.70
35565;DHT22;21668;44.784;10.336;2022-08-03T16:59:54;33.50;75.00
35565;DHT22;21668;44.784;10.336;2022-08-03T17:02:58;33.50;74.60
35565;DHT22;21668;44.784;10.336;2022-08-03T17:06:03;33.50;74.50
35565;DHT22;21668;44.784;10.336;2022-08-03T17:09:08;33.70;74.50
35565;DHT22;21668;44.784;10.336;2022-08-03T17:12:13;33.60;74.50
35565;DHT22;21668;44.784;10.336;2022-08-03T17:15:16;33.70;72.60
35565;DHT22;21668;44.784;10.336;2022-08-03T17:18:21;34.40;71.90
35565;DHT22;21668;44.784;10.336;2022-08-03T17:21:28;35.70;70.80
35565;DHT22;21668;44.784;10.336;2022-08-03T17:24:33;36.70;69.70
35565;DHT22;21668;44.784;10.336;2022-08-03T17:27:38;37.80;68.10
35565;DHT22;21668;44.784;10.336;2022-08-03T17:30:43;38.40;67.80
35565;DHT22;21668;44.784;10.336;2022-08-03T17:34:06;38.50;68.10
35565;DHT22;21668;44.784;10.336;2022-08-03T17:37:11;38.00;67.80
35565;DHT22;21668;44.784;10.336;2022-08-03T17:40:16;39.00;68.20
35565;DHT22;21668;44.784;10.336;2022-08-03T17:43:20;39.30;66.80
35565;DHT22;21668;44.784;10.336;2022-08-03T17:46:24;39.50;66.50
35565;DHT22;21668;44.784;10.336;2022-08-03T17:49:28;38.00;65.20
35565;DHT22;21668;44.784;10.336;2022-08-03T17:55:36;37.30;65.70
35565;DHT22;21668;44.784;10.336;2022-08-03T18:02:10;38.40;67.20
35565;DHT22;21668;44.784;10.336;2022-08-03T18:05:31;38.00;67.30
35565;DHT22;21668;44.784;10.336;2022-08-03T18:08:38;37.50;68.00
35565;DHT22;21668;44.784;10.336;2022-08-03T18:11:45;36.80;68.70
35565;DHT22;21668;44.784;10.336;2022-08-03T18:14:55;36.00;69.60
35565;DHT22;21668;44.784;10.336;2022-08-03T18:18:02;35.20;70.70
35565;DHT22;21668;44.784;10.336;2022-08-03T18:21:07;34.40;71.70
35565;DHT22;21668;44.784;10.336;2022-08-03T18:24:11;33.80;72.90
35565;DHT22;21668;44.784;10.336;2022-08-03T18:27:15;31.80;73.00
35565;DHT22;21668;44.784;10.336;2022-08-03T18:30:19;32.60;74.80
35565;DHT22;21668;44.784;10.336;2022-08-03T18:33:23;32.30;76.00
35565;DHT22;21668;44.784;10.336;2022-08-03T18:36:29;32.00;76.40
35565;DHT22;21668;44.784;10.336;2022-08-03T18:39:36;31.70;77.00
35565;DHT22;21668;44.784;10.336;2022-08-03T18:42:40;31.60;77.60
35565;DHT22;21668;44.784;10.336;2022-08-03T18:45:44;32.50;78.90
35565;DHT22;21668;44.784;10.336;2022-08-03T18:48:54;31.30;78.40
35565;DHT22;21668;44.784;10.336;2022-08-03T18:52:03;30.60;78.60
35565;DHT22;21668;44.784;10.336;2022-08-03T18:55:09;31.00;80.10
35565;DHT22;21668;44.784;10.336;2022-08-03T18:58:17;30.80;80.50
35565;DHT22;21668;44.784;10.336;2022-08-03T19:04:47;30.70;81.40
35565;DHT22;21668;44.784;10.336;2022-08-03T19:08:02;30.60;82.00
35565;DHT22;21668;44.784;10.336;2022-08-03T19:11:06;30.40;82.20
35565;DHT22;21668;44.784;10.336;2022-08-03T19:14:13;28.90;82.00
35565;DHT22;21668;44.784;10.336;2022-08-03T19:17:18;29.90;83.20
35565;DHT22;21668;44.784;10.336;2022-08-03T19:20:25;30.20;83.80
35565;DHT22;21668;44.784;10.336;2022-08-03T19:23:29;30.20;84.10
35565;DHT22;21668;44.784;10.336;2022-08-03T19:26:35;30.10;84.30
35565;DHT22;21668;44.784;10.336;2022-08-03T19:29:50;30.10;84.50
35565;DHT22;21668;44.784;10.336;2022-08-03T19:32:54;30.10;84.50
35565;DHT22;21668;44.784;10.336;2022-08-03T19:35:58;30.10;85.30
35565;DHT22;21668;44.784;10.336;2022-08-03T19:39:02;30.00;85.10
35565;DHT22;21668;44.784;10.336;2022-08-03T19:42:08;30.00;85.30
35565;DHT22;21668;44.784;10.336;2022-08-03T19:45:14;29.90;85.40
35565;DHT22;21668;44.784;10.336;2022-08-03T19:48:19;29.70;85.40
35565;DHT22;21668;44.784;10.336;2022-08-03T19:51:29;29.70;85.90
35565;DHT22;21668;44.784;10.336;2022-08-03T19:54:37;28.30;84.70
35565;DHT22;21668;44.784;10.336;2022-08-03T19:57:42;29.70;85.70